Impacts TAF Board
For situational awareness. Not to be used for flight planning purposes.
IDs:

KMEM - Memphis Intl, TN, US

Issued at 0859 UTC 25 May 2020
Updated at 0913 UTC 25 May 2020
Potential Impact None Slight Moderate High
Time0854Z 25/10Z 25/11Z 25/12Z 25/13Z 25/14Z 25/15Z 25/16Z 25/17Z 25/18Z 25/19Z 25/20Z 25/21Z 25/22Z>>
Type OBS PRVL PRVL PRVL PRVL PRVL PRVL PRVL PRVL PRVL PRVL PRVL PRVL PRVL
VIS 10 >6 >6 >6 >6 >6 >6 >6 >6 >6 >6 >6 >6 >6
CIG -- -- -- -- -- -- -- -- -- -- -- -- -- --
Cover CLR SCT SCT SCT SCT SCT SCT SCT SCT SCT SCT SCT SCT SCT
FltCat VFR VFR VFR VFR VFR VFR VFR VFR VFR VFR VFR VFR VFR VFR
WX -- -- -- -- -- -- -- -- -- VCTS VCTS VCTS VCTS VCTS
WDir 140 140 140 150 150 150 150 150 150 180 180 180 180 180
WSpd 5 5 5 5 5 5 5 5 5 8 8 8 8 8
WGst -- -- -- -- -- -- -- -- -- -- -- -- -- --
Raw TAF
KMEM 250859Z 2509/2612 14005KT P6SM SCT250
  FM251200 15005KT P6SM SCT120
  FM251800 18008KT P6SM VCTS SCT050CB SCT100
  FM260500 13010KT P6SM FEW040 OVC100


Raw METAR
KMEM 250854Z 14005KT 10SM CLR 23/19 A2991 RMK AO2 SLP125 T02330194 53003 $
KMEM 250754Z 15007KT 10SM CLR 24/19 A2990 RMK AO2 SLP122 T02440194 $
KMEM 250654Z 13005KT 10SM CLR 24/19 A2989 RMK AO2 SLP118 T02440194 $

METAR Board
Radar Display
Forecast Discussion
For situational awareness. Not to be used for flight planning purposes.